createdAt,value
2017-12-12T00:00:21.439Z,5.96
2017-12-12T00:01:02.033Z,5.96
2017-12-12T00:01:42.545Z,5.9
2017-12-12T00:02:23.133Z,5.9
2017-12-12T00:03:03.676Z,5.99
2017-12-12T00:03:44.219Z,5.87
2017-12-12T00:04:24.781Z,5.93
2017-12-12T00:05:05.369Z,6.03
2017-12-12T00:05:45.866Z,6.03
2017-12-12T00:06:26.669Z,6.02
2017-12-12T00:07:07.413Z,6.05
2017-12-12T00:07:47.844Z,5.9
2017-12-12T00:08:28.362Z,5.96
2017-12-12T00:09:09.035Z,5.95
2017-12-12T00:09:49.585Z,5.92
2017-12-12T00:10:30.158Z,5.93
2017-12-12T00:11:14.456Z,5.96
2017-12-12T00:11:55.039Z,5.88
2017-12-12T00:12:35.653Z,5.77
2017-12-12T00:13:16.312Z,5.81
2017-12-12T00:14:00.202Z,5.9
2017-12-12T00:14:40.821Z,6.05
2017-12-12T00:15:21.389Z,6.06
2017-12-12T00:16:02.096Z,6.11
2017-12-12T00:16:42.596Z,6.08
2017-12-12T00:17:23.176Z,6.03
2017-12-12T00:18:03.700Z,6.11
2017-12-12T00:18:44.210Z,6.2
2017-12-12T00:19:28.328Z,6.17
2017-12-12T00:20:08.863Z,6.11
2017-12-12T00:20:49.519Z,6.21
2017-12-12T00:21:30.069Z,6.25
2017-12-12T00:22:10.628Z,6.11
2017-12-12T00:22:51.249Z,6.16
2017-12-12T00:23:31.784Z,6.14
2017-12-12T00:24:12.493Z,6.03
2017-12-12T00:24:53.008Z,5.96
2017-12-12T00:25:33.570Z,6.01
2017-12-12T00:26:14.166Z,6.03
2017-12-12T00:26:54.774Z,5.99
2017-12-12T00:27:35.416Z,6.01
2017-12-12T00:28:16.018Z,6.02
2017-12-12T00:28:56.556Z,5.93
2017-12-12T00:29:37.086Z,5.96
2017-12-12T00:30:17.550Z,5.88
2017-12-12T00:30:58.145Z,5.9
2017-12-12T00:31:38.666Z,5.7
2017-12-12T00:32:19.231Z,5.67
2017-12-12T00:32:59.779Z,5.52
2017-12-12T00:33:40.261Z,5.48
2017-12-12T00:34:25.030Z,5.38
2017-12-12T00:35:05.515Z,5.59
2017-12-12T00:35:46.006Z,5.56
2017-12-12T00:36:30.138Z,5.69
2017-12-12T00:37:10.726Z,5.56
2017-12-12T00:37:51.307Z,5.6
2017-12-12T00:38:31.945Z,5.59
2017-12-12T00:39:12.518Z,5.59
2017-12-12T00:39:53.209Z,5.48
2017-12-12T00:40:37.737Z,5.58
2017-12-12T00:41:18.300Z,5.49
2017-12-12T00:41:58.967Z,5.62
2017-12-12T00:42:39.403Z,5.55
2017-12-12T00:43:20.074Z,5.67
2017-12-12T00:44:00.596Z,5.75
2017-12-12T00:44:41.138Z,5.77
2017-12-12T00:45:21.698Z,5.77
2017-12-12T00:46:02.351Z,5.77
2017-12-12T00:46:42.922Z,5.75
2017-12-12T00:47:23.418Z,5.78
2017-12-12T00:48:03.990Z,5.85
2017-12-12T00:48:44.911Z,5.88
2017-12-12T00:49:25.554Z,5.96
2017-12-12T00:50:06.055Z,5.9
2017-12-12T00:50:46.670Z,5.92
2017-12-12T00:51:27.414Z,6.08
2017-12-12T00:52:07.977Z,5.88
2017-12-12T00:52:53.553Z,5.85
2017-12-12T00:53:37.536Z,5.98
2017-12-12T00:54:18.120Z,5.96
2017-12-12T00:54:58.643Z,5.9
2017-12-12T00:55:43.113Z,5.87
2017-12-12T00:56:23.701Z,5.85
2017-12-12T00:57:04.334Z,5.84
2017-12-12T00:57:44.864Z,5.87
2017-12-12T00:58:25.506Z,6.01
2017-12-12T00:59:06.076Z,5.99
2017-12-12T00:59:46.693Z,6.06
2017-12-12T01:00:27.256Z,6.02
2017-12-12T01:01:07.866Z,6.05
2017-12-12T01:01:48.353Z,6.08
2017-12-12T01:02:28.932Z,6.02
2017-12-12T01:03:09.577Z,6.02
2017-12-12T01:03:50.098Z,6.11
2017-12-12T01:04:30.662Z,6.14
2017-12-12T01:05:11.242Z,6.05
2017-12-12T01:05:51.821Z,6.14
2017-12-12T01:06:32.354Z,6.14
2017-12-12T01:07:12.917Z,6.19
2017-12-12T01:07:54.582Z,6.17
2017-12-12T01:08:37.880Z,6.14
2017-12-12T01:09:18.383Z,6.03
2017-12-12T01:09:58.997Z,6.02
2017-12-12T01:10:41.713Z,6.03
2017-12-12T01:11:23.210Z,6.03
2017-12-12T01:12:03.766Z,6.05
2017-12-12T01:12:44.439Z,6.1
2017-12-12T01:13:25.011Z,6.17
2017-12-12T01:14:05.520Z,6.03
2017-12-12T01:14:47.134Z,6.01
2017-12-12T01:15:27.675Z,5.87
2017-12-12T01:16:08.243Z,5.74
2017-12-12T01:16:50.629Z,5.7
2017-12-12T01:17:31.218Z,5.52
2017-12-12T01:18:11.750Z,5.52
2017-12-12T01:18:52.229Z,5.55
2017-12-12T01:19:32.799Z,5.6
2017-12-12T01:20:13.271Z,5.67
2017-12-12T01:20:53.884Z,5.62
2017-12-12T01:21:34.361Z,5.6
2017-12-12T01:22:14.951Z,5.6
2017-12-12T01:22:55.537Z,5.65
2017-12-12T01:23:36.057Z,5.58
2017-12-12T01:24:16.778Z,5.56
2017-12-12T01:24:57.153Z,5.56
2017-12-12T01:25:37.686Z,5.63
2017-12-12T01:26:18.243Z,5.58
2017-12-12T01:26:58.810Z,5.65
2017-12-12T01:27:39.406Z,5.73
2017-12-12T01:28:19.956Z,5.62
2017-12-12T01:29:00.619Z,5.62
2017-12-12T01:29:41.091Z,5.63
2017-12-12T01:30:21.650Z,5.51
2017-12-12T01:31:05.920Z,5.59
2017-12-12T01:31:46.532Z,5.59
2017-12-12T01:32:27.079Z,5.49
2017-12-12T01:33:09.299Z,5.38
2017-12-12T01:33:51.828Z,5.24
2017-12-12T01:34:32.304Z,5.33
2017-12-12T01:35:12.841Z,5.35
2017-12-12T01:35:53.379Z,5.38
2017-12-12T01:36:34.001Z,5.35
2017-12-12T01:37:14.570Z,5.26
2017-12-12T01:37:58.402Z,5.33
2017-12-12T01:38:38.997Z,5.33
2017-12-12T01:39:19.618Z,5.37
2017-12-12T01:40:00.114Z,5.27
2017-12-12T01:40:40.764Z,5.27
2017-12-12T01:41:21.307Z,5.32
2017-12-12T01:42:01.816Z,5.38
2017-12-12T01:42:42.534Z,5.24
2017-12-12T01:43:23.002Z,5.35
2017-12-12T01:44:03.548Z,5.3
2017-12-12T01:44:44.144Z,5.37
2017-12-12T01:45:24.767Z,5.41
2017-12-12T01:46:05.349Z,5.49
2017-12-12T01:46:45.928Z,5.59
2017-12-12T01:47:26.496Z,5.62
2017-12-12T01:48:07.053Z,5.58
2017-12-12T01:48:47.542Z,5.58
2017-12-12T01:49:28.087Z,5.6
2017-12-12T01:50:08.645Z,5.59
2017-12-12T01:50:49.239Z,5.62
2017-12-12T01:51:29.847Z,5.69
2017-12-12T01:52:13.874Z,5.59
2017-12-12T01:52:54.449Z,5.52
2017-12-12T01:53:35.090Z,5.49
2017-12-12T01:54:15.600Z,5.48
2017-12-12T01:54:58.860Z,5.49
2017-12-12T01:55:40.084Z,5.45
2017-12-12T01:56:20.648Z,5.42
2017-12-12T01:57:01.119Z,5.42
2017-12-12T01:57:41.731Z,5.35
2017-12-12T01:58:22.185Z,5.4
2017-12-12T01:59:04.076Z,5.41
2017-12-12T01:59:44.785Z,5.38
2017-12-12T02:00:25.297Z,5.42
2017-12-12T02:01:07.461Z,5.38
2017-12-12T02:01:48.081Z,5.38
2017-12-12T02:02:28.546Z,5.41
2017-12-12T02:03:09.248Z,5.4
2017-12-12T02:03:49.677Z,5.35
2017-12-12T02:04:30.204Z,5.38
2017-12-12T02:05:10.722Z,5.33
2017-12-12T02:05:51.280Z,5.32
2017-12-12T02:06:31.847Z,5.38
2017-12-12T02:07:12.328Z,5.23
2017-12-12T02:07:52.972Z,5.27
2017-12-12T02:08:33.506Z,5.29
2017-12-12T02:09:14.062Z,5.29
2017-12-12T02:09:54.522Z,5.38
2017-12-12T02:10:35.112Z,5.35
2017-12-12T02:11:15.597Z,5.35
2017-12-12T02:11:56.213Z,5.32
2017-12-12T02:12:36.722Z,5.38
2017-12-12T02:13:17.269Z,5.29
2017-12-12T02:13:57.788Z,5.4
2017-12-12T02:14:38.362Z,5.42
2017-12-12T02:15:18.853Z,5.63
2017-12-12T02:15:59.445Z,5.62
2017-12-12T02:16:39.999Z,5.6
2017-12-12T02:17:20.481Z,5.66
2017-12-12T02:18:04.447Z,5.63
2017-12-12T02:18:45.086Z,5.67
2017-12-12T02:19:25.540Z,5.65
2017-12-12T02:20:06.150Z,5.65
2017-12-12T02:20:46.723Z,5.49
2017-12-12T02:21:27.286Z,5.49
2017-12-12T02:22:10.333Z,5.38
2017-12-12T02:22:52.034Z,5.4
2017-12-12T02:23:32.648Z,5.42
2017-12-12T02:24:13.250Z,5.44
2017-12-12T02:24:53.826Z,5.58
2017-12-12T02:25:34.319Z,5.66
2017-12-12T02:26:18.560Z,5.67
2017-12-12T02:26:58.982Z,5.7
2017-12-12T02:27:39.611Z,5.75
2017-12-12T02:28:20.173Z,5.75
2017-12-12T02:29:00.695Z,5.74
2017-12-12T02:29:41.253Z,5.67
2017-12-12T02:30:21.856Z,5.66
2017-12-12T02:31:02.408Z,5.6
2017-12-12T02:31:42.946Z,5.63
2017-12-12T02:32:23.575Z,5.65
2017-12-12T02:33:04.054Z,5.51
2017-12-12T02:33:44.642Z,5.62
2017-12-12T02:34:25.192Z,5.6
2017-12-12T02:35:05.686Z,5.59
2017-12-12T02:35:46.234Z,5.6
2017-12-12T02:36:26.723Z,5.48
2017-12-12T02:37:07.348Z,5.59
2017-12-12T02:37:47.809Z,5.48
2017-12-12T02:38:28.401Z,5.65
2017-12-12T02:39:09.063Z,5.62
2017-12-12T02:39:49.526Z,5.66
2017-12-12T02:40:30.122Z,5.73
2017-12-12T02:41:10.715Z,5.49
2017-12-12T02:41:51.268Z,5.42
2017-12-12T02:42:31.835Z,5.52
2017-12-12T02:43:12.375Z,5.6
2017-12-12T02:43:52.974Z,5.66
2017-12-12T02:44:34.610Z,5.65
2017-12-12T02:45:17.445Z,5.66
2017-12-12T02:45:57.957Z,5.67
2017-12-12T02:46:38.595Z,5.67
2017-12-12T02:47:19.134Z,5.56
2017-12-12T02:47:59.669Z,5.65
2017-12-12T02:48:40.204Z,5.67
2017-12-12T02:49:23.032Z,5.67
2017-12-12T02:50:04.760Z,5.69
2017-12-12T02:50:45.246Z,5.65
2017-12-12T02:51:25.849Z,5.7
2017-12-12T02:52:06.326Z,5.77
2017-12-12T02:52:46.909Z,5.78
2017-12-12T02:53:27.352Z,5.78
2017-12-12T02:54:07.905Z,5.73
2017-12-12T02:54:48.525Z,5.78
2017-12-12T02:55:29.113Z,5.7
2017-12-12T02:56:09.617Z,5.74
2017-12-12T02:56:50.078Z,5.78
2017-12-12T02:57:34.587Z,5.7
2017-12-12T02:58:15.114Z,5.7
2017-12-12T02:58:57.625Z,5.9
2017-12-12T02:59:38.255Z,5.93
2017-12-12T03:00:18.745Z,5.99
2017-12-12T03:00:59.250Z,6.05
2017-12-12T03:01:39.846Z,6.1
2017-12-12T03:02:20.416Z,5.99
2017-12-12T03:03:00.906Z,5.87
2017-12-12T03:03:41.533Z,5.93
2017-12-12T03:04:22.005Z,5.87
2017-12-12T03:05:02.608Z,5.9
2017-12-12T03:05:43.066Z,5.92
2017-12-12T03:06:27.206Z,5.96
2017-12-12T03:07:07.812Z,5.9
2017-12-12T03:07:48.395Z,6.01
2017-12-12T03:08:28.863Z,6.06
2017-12-12T03:09:13.726Z,6.05
2017-12-12T03:09:53.686Z,6.02
2017-12-12T03:10:34.182Z,6.05
2017-12-12T03:11:14.743Z,5.93
2017-12-12T03:11:55.318Z,5.88
2017-12-12T03:12:39.312Z,5.81
2017-12-12T03:13:19.930Z,5.88
2017-12-12T03:14:00.393Z,5.88
2017-12-12T03:14:40.874Z,6.02
2017-12-12T03:15:21.551Z,6.02
2017-12-12T03:16:02.014Z,6.08
2017-12-12T03:16:42.590Z,6.02
2017-12-12T03:17:23.522Z,6.06
2017-12-12T03:18:04.275Z,6.08
2017-12-12T03:18:44.756Z,6.13
2017-12-12T03:19:25.260Z,6.13
2017-12-12T03:20:05.923Z,5.96
2017-12-12T03:20:46.475Z,6.17
2017-12-12T03:21:27.015Z,6.2
2017-12-12T03:22:07.625Z,6.11
2017-12-12T03:22:48.122Z,6.14
2017-12-12T03:23:28.608Z,6.2
2017-12-12T03:24:09.187Z,6.1
2017-12-12T03:24:49.761Z,6.08
2017-12-12T03:25:33.976Z,6.19
2017-12-12T03:26:14.499Z,6.21
2017-12-12T03:26:55.258Z,6.27
2017-12-12T03:27:35.797Z,6.2
2017-12-12T03:28:19.802Z,6.16
2017-12-12T03:29:00.688Z,6.24
2017-12-12T03:29:41.161Z,6.25
2017-12-12T03:30:21.791Z,6.27
2017-12-12T03:31:02.342Z,6.19
2017-12-12T03:31:46.566Z,6.2
2017-12-12T03:32:27.066Z,6.08
2017-12-12T03:33:07.630Z,6.19
2017-12-12T03:33:48.128Z,6.05
2017-12-12T03:34:28.729Z,6.25
2017-12-12T03:35:09.352Z,6.27
2017-12-12T03:35:49.859Z,6.11
2017-12-12T03:36:30.429Z,6.3
2017-12-12T03:37:10.872Z,6.24
2017-12-12T03:37:51.498Z,6.25
2017-12-12T03:38:32.023Z,6.17
2017-12-12T03:39:12.539Z,6.24
2017-12-12T03:39:53.118Z,6.32
2017-12-12T03:40:33.686Z,6.24
2017-12-12T03:41:14.160Z,6.13
2017-12-12T03:41:54.674Z,6.16
2017-12-12T03:42:35.275Z,6.25
2017-12-12T03:43:15.856Z,6.13
2017-12-12T03:43:56.393Z,6.02
2017-12-12T03:44:36.903Z,6.14
2017-12-12T03:45:17.410Z,6.01
2017-12-12T03:46:01.419Z,6.14
2017-12-12T03:46:42.062Z,6.19
2017-12-12T03:47:22.537Z,6.14
2017-12-12T03:48:03.143Z,6.27
2017-12-12T03:48:47.292Z,6.2
2017-12-12T03:49:27.948Z,6.17
2017-12-12T03:50:08.627Z,6.14
2017-12-12T03:50:49.140Z,6.24
2017-12-12T03:51:29.667Z,6.25
2017-12-12T03:52:10.250Z,6.24
2017-12-12T03:52:54.270Z,6.3
2017-12-12T03:53:34.817Z,6.24
2017-12-12T03:54:15.351Z,6.24
2017-12-12T03:54:55.986Z,6.32
2017-12-12T03:55:36.478Z,6.2
2017-12-12T03:56:17.011Z,6.19
2017-12-12T03:56:57.560Z,6.21
2017-12-12T03:59:16.347Z,6.32
2017-12-12T04:00:01.062Z,6.45
2017-12-12T04:00:51.178Z,6.43
2017-12-12T04:01:31.493Z,6.32
2017-12-12T04:43:00.076Z,6.14
2017-12-12T04:43:49.438Z,6.02
2017-12-12T04:44:28.741Z,6.03
2017-12-12T04:45:09.029Z,5.93
2017-12-12T04:45:50.794Z,6.02
2017-12-12T04:46:32.020Z,6.01
2017-12-12T04:47:12.397Z,6.03
2017-12-12T04:47:52.925Z,6.08
2017-12-12T04:48:33.379Z,6.14
2017-12-12T04:49:14.328Z,6.17
2017-12-12T04:49:54.612Z,6.2
2017-12-12T04:50:35.590Z,6.11
2017-12-12T04:51:17.105Z,6.11
2017-12-12T04:51:57.896Z,6.27
2017-12-12T04:52:38.363Z,6.13
2017-12-12T04:53:18.719Z,6.14
2017-12-12T04:53:59.838Z,6.06
2017-12-12T04:54:40.271Z,6.13
2017-12-12T04:55:21.013Z,6.08
2017-12-12T04:56:01.408Z,6.05
2017-12-12T04:56:42.466Z,6.06
2017-12-12T04:57:22.732Z,6.05
2017-12-12T04:58:03.086Z,6.06
2017-12-12T04:58:44.316Z,5.83
2017-12-12T04:59:25.138Z,5.83
2017-12-12T05:00:05.655Z,5.75
2017-12-12T05:00:45.853Z,5.78
2017-12-12T05:01:27.863Z,5.87
2017-12-12T05:02:08.474Z,5.98
2017-12-12T05:02:48.906Z,5.95
2017-12-12T05:03:29.385Z,5.87
2017-12-12T05:04:09.988Z,5.84
2017-12-12T05:04:50.784Z,5.8
2017-12-12T05:05:31.775Z,5.84
2017-12-12T05:06:12.485Z,5.9
2017-12-12T05:06:53.134Z,6.03
2017-12-12T05:07:33.510Z,6.02
2017-12-12T05:08:14.425Z,6.05
2017-12-12T05:08:55.043Z,6.02
2017-12-12T05:09:35.722Z,6.05
2017-12-12T05:10:16.128Z,6.03
2017-12-12T05:10:56.511Z,6.13
2017-12-12T05:11:37.021Z,6.13
2017-12-12T05:12:17.573Z,6.13
2017-12-12T05:12:57.807Z,6.28
2017-12-12T05:13:38.789Z,6.19
2017-12-12T05:14:21.441Z,6.21
2017-12-12T05:15:02.427Z,6.19
2017-12-12T05:15:42.880Z,6.14
2017-12-12T05:16:23.694Z,6.14
2017-12-12T05:17:04.121Z,6.28
2017-12-12T05:17:44.747Z,6.06
2017-12-12T05:18:26.052Z,6.27
2017-12-12T05:19:07.025Z,6.35
2017-12-12T05:19:47.604Z,6.4
2017-12-12T05:20:28.159Z,6.39
2017-12-12T05:21:08.957Z,6.45
2017-12-12T05:21:49.385Z,6.45
2017-12-12T05:22:30.600Z,6.42
2017-12-12T05:23:11.488Z,6.35
2017-12-12T05:23:53.744Z,6.3
2017-12-12T05:24:33.889Z,6.19
2017-12-12T05:25:14.796Z,6.19
2017-12-12T05:25:55.247Z,6.2
2017-12-12T05:29:02.959Z,6.14
2017-12-12T05:29:54.106Z,6.13
2017-12-12T05:31:57.037Z,6.16
2017-12-12T05:32:38.473Z,6.28
2017-12-12T05:33:19.238Z,6.38
2017-12-12T05:33:59.884Z,6.19
2017-12-12T05:34:40.019Z,6.19
2017-12-12T05:35:20.535Z,6.11
2017-12-12T05:36:02.069Z,6.27
2017-12-12T05:36:42.991Z,6.27
2017-12-12T05:37:23.842Z,6.35
2017-12-12T05:38:04.507Z,6.42
2017-12-12T05:38:44.738Z,6.46
2017-12-12T05:39:25.049Z,6.54
2017-12-12T05:40:05.599Z,6.51
2017-12-12T05:40:45.998Z,6.45
2017-12-12T05:41:27.222Z,6.43
2017-12-12T05:42:06.803Z,6.39
2017-12-12T05:42:48.526Z,6.32
2017-12-12T05:43:29.033Z,6.25
2017-12-12T05:44:10.311Z,6.24
2017-12-12T05:44:50.688Z,6.25
2017-12-12T05:45:31.292Z,6.45
2017-12-12T05:46:12.034Z,6.51
2017-12-12T05:46:52.469Z,6.45
2017-12-12T05:47:33.049Z,6.5
2017-12-12T05:48:14.194Z,6.43
2017-12-12T05:48:55.548Z,6.39
2017-12-12T05:49:36.313Z,6.5
2017-12-12T05:50:16.760Z,6.45
2017-12-12T05:50:57.987Z,6.53
2017-12-12T05:51:38.261Z,6.54
2017-12-12T05:52:18.640Z,6.54
2017-12-12T05:52:59.811Z,6.55
2017-12-12T05:53:40.343Z,6.63
2017-12-12T05:54:20.874Z,6.71
2017-12-12T05:55:01.580Z,6.72
2017-12-12T05:55:41.899Z,6.65
2017-12-12T05:56:22.364Z,6.71
2017-12-12T05:57:03.352Z,6.69
2017-12-12T05:57:45.188Z,6.75
2017-12-12T05:58:25.494Z,6.64
2017-12-12T05:59:06.310Z,6.68
2017-12-12T05:59:47.099Z,6.51
2017-12-12T06:00:28.028Z,6.53
2017-12-12T06:01:08.246Z,6.57
2017-12-12T06:01:48.939Z,6.69
2017-12-12T06:02:29.183Z,6.68
2017-12-12T06:03:09.752Z,6.69
2017-12-12T06:03:50.495Z,6.71
2017-12-12T06:04:30.921Z,6.73
2017-12-12T06:05:11.512Z,6.53
2017-12-12T06:05:51.857Z,6.57
2017-12-12T06:06:32.414Z,6.57
2017-12-12T06:07:12.808Z,6.61
2017-12-12T06:07:53.286Z,6.46
2017-12-12T06:08:34.209Z,6.46
2017-12-12T06:09:14.792Z,6.46
2017-12-12T06:09:56.000Z,6.54
2017-12-12T06:10:36.586Z,6.57
2017-12-12T06:11:18.286Z,6.53
2017-12-12T06:12:58.194Z,6.69
2017-12-12T06:14:41.366Z,6.71
2017-12-12T06:15:33.895Z,6.68
2017-12-12T06:18:00.126Z,6.53
2017-12-12T06:18:40.949Z,6.5
2017-12-12T06:19:22.524Z,6.43
2017-12-12T06:20:03.032Z,6.51
2017-12-12T06:20:43.594Z,6.48
2017-12-12T06:21:24.213Z,6.48
2017-12-12T06:22:06.125Z,6.45
2017-12-12T06:22:46.676Z,6.46
2017-12-12T06:23:27.143Z,6.48
2017-12-12T06:24:08.519Z,6.48
2017-12-12T06:24:49.093Z,6.46
2017-12-12T06:25:30.370Z,6.5
2017-12-12T06:26:11.450Z,6.54
2017-12-12T06:26:52.563Z,6.54
2017-12-12T06:27:33.935Z,6.64
2017-12-12T06:28:13.901Z,6.81
2017-12-12T06:28:56.636Z,6.63
2017-12-12T06:29:37.276Z,6.71
2017-12-12T06:30:17.710Z,6.54
2017-12-12T06:30:58.135Z,6.54
2017-12-12T06:31:38.883Z,6.55
2017-12-12T06:32:20.801Z,6.51
2017-12-12T06:33:01.116Z,6.48
2017-12-12T06:33:41.776Z,6.42
2017-12-12T06:34:22.258Z,6.45
2017-12-12T06:35:02.766Z,6.53
2017-12-12T06:35:43.225Z,6.55
2017-12-12T06:36:23.589Z,6.57
2017-12-12T06:37:03.987Z,6.46
2017-12-12T06:37:45.613Z,6.5
2017-12-12T06:38:25.660Z,6.55
2017-12-12T06:39:08.837Z,6.61
2017-12-12T06:39:48.656Z,6.58
2017-12-12T06:40:29.036Z,6.55
2017-12-12T06:41:09.497Z,6.53
2017-12-12T06:41:49.842Z,6.51
2017-12-12T06:42:30.905Z,6.43
2017-12-12T06:43:11.179Z,6.43
2017-12-12T06:43:51.612Z,6.39
2017-12-12T06:44:32.085Z,6.24
2017-12-12T06:45:12.394Z,6.3
2017-12-12T06:45:52.790Z,6.32
2017-12-12T06:46:33.137Z,6.14
2017-12-12T06:47:13.691Z,6.19
2017-12-12T06:47:54.227Z,6.2
2017-12-12T06:48:34.816Z,6.17
2017-12-12T06:49:15.714Z,6.19
2017-12-12T06:49:56.362Z,6.35
2017-12-12T06:50:37.205Z,6.38
2017-12-12T06:51:17.752Z,6.24
2017-12-12T06:53:12.532Z,6.36
2017-12-12T06:55:04.187Z,6.24
2017-12-12T06:55:45.236Z,6.17
2017-12-12T06:56:26.613Z,6.28
2017-12-12T06:57:06.773Z,6.32
2017-12-12T06:57:48.312Z,6.33
2017-12-12T06:58:28.334Z,6.46
2017-12-12T06:59:09.804Z,6.5
2017-12-12T06:59:49.863Z,6.51
2017-12-12T07:00:30.530Z,6.48
2017-12-12T07:01:11.604Z,6.46
2017-12-12T07:01:55.658Z,6.21
2017-12-12T07:02:37.107Z,6.17
2017-12-12T07:03:17.036Z,6.19
2017-12-12T07:03:57.843Z,6.25
2017-12-12T07:04:40.454Z,6.16
2017-12-12T07:05:22.250Z,6.11
2017-12-12T07:06:03.017Z,6.27
2017-12-12T07:06:44.751Z,6.06
2017-12-12T07:07:26.669Z,6.06
2017-12-12T07:08:07.200Z,6.17
2017-12-12T07:08:47.612Z,6.11
2017-12-12T07:09:29.112Z,6.11
2017-12-12T07:10:08.379Z,6.13
2017-12-12T07:10:48.772Z,6.1
2017-12-12T07:11:29.247Z,6.11
2017-12-12T07:12:09.722Z,6.32
2017-12-12T07:12:50.087Z,6.39
2017-12-12T07:13:30.530Z,6.43
2017-12-12T07:14:10.866Z,6.28
2017-12-12T07:14:51.281Z,6.21
2017-12-12T07:15:31.733Z,6.25
2017-12-12T07:16:16.948Z,6.21
2017-12-12T07:16:57.436Z,6.38
2017-12-12T07:17:37.896Z,6.45
2017-12-12T07:18:18.325Z,6.53
2017-12-12T07:18:58.938Z,6.53
2017-12-12T07:19:39.332Z,6.53
2017-12-12T07:20:19.671Z,6.71
2017-12-12T07:21:00.910Z,6.65
2017-12-12T07:21:41.626Z,6.76
2017-12-12T07:22:22.150Z,6.79
2017-12-12T07:23:02.555Z,6.61
2017-12-12T07:23:43.364Z,6.63
2017-12-12T07:24:23.998Z,6.71
2017-12-12T07:25:07.421Z,6.68
2017-12-12T07:25:46.603Z,6.76
2017-12-12T07:26:27.167Z,6.65
2017-12-12T07:27:10.118Z,6.69
2017-12-12T07:27:50.032Z,6.63
2017-12-12T07:28:30.590Z,6.65
2017-12-12T07:29:11.004Z,6.65
2017-12-12T07:29:51.545Z,6.68
2017-12-12T07:30:33.619Z,6.55
2017-12-12T07:31:13.932Z,6.55
2017-12-12T07:31:54.370Z,6.58
2017-12-12T07:32:42.043Z,6.63
2017-12-12T10:46:38.082Z,8.68
2017-12-12T10:48:17.058Z,8.76
2017-12-12T10:48:57.669Z,8.68
2017-12-12T10:49:38.215Z,8.78
2017-12-12T10:50:18.992Z,8.78
2017-12-12T10:50:59.530Z,8.89
2017-12-12T10:51:39.934Z,8.89
2017-12-12T10:52:20.654Z,8.93
2017-12-12T10:53:00.962Z,9.08
2017-12-12T10:53:41.373Z,9.16
2017-12-12T10:54:22.202Z,9.12
2017-12-12T10:55:02.343Z,9.12
2017-12-12T10:55:42.801Z,9.08
2017-12-12T10:56:23.235Z,9.13
2017-12-12T10:57:03.704Z,9.1
2017-12-12T10:57:44.142Z,9.04
2017-12-12T10:58:24.791Z,9.06
2017-12-12T10:59:05.675Z,9.04
2017-12-12T10:59:46.252Z,8.98
2017-12-12T11:00:27.074Z,8.98
2017-12-12T11:01:07.685Z,9.06
2017-12-12T11:01:48.410Z,9.08
2017-12-12T11:02:28.947Z,9.08
2017-12-12T11:03:09.417Z,9.08
2017-12-12T11:03:49.853Z,9.1
2017-12-12T11:04:30.519Z,9.12
2017-12-12T11:05:11.348Z,9.06
2017-12-12T11:05:52.148Z,9.2
2017-12-12T11:06:32.888Z,9.22
2017-12-12T11:07:13.439Z,9.22
2017-12-12T11:07:54.388Z,9.2
2017-12-12T11:08:36.060Z,9.22
2017-12-12T11:09:16.705Z,9.2
2017-12-12T11:09:57.594Z,9.22
2017-12-12T11:10:38.413Z,9.32
2017-12-12T11:11:19.088Z,9.32
2017-12-12T11:12:01.108Z,9.42
2017-12-12T11:12:42.146Z,9.41
2017-12-12T11:13:23.456Z,9.48
2017-12-12T11:14:04.994Z,9.32
2017-12-12T11:14:46.003Z,9.22
2017-12-12T11:15:26.593Z,9.26
2017-12-12T11:16:08.729Z,9.22
2017-12-12T11:16:50.463Z,9.3
2017-12-12T11:17:30.953Z,9.24
2017-12-12T11:18:11.977Z,9.15
2017-12-12T11:18:52.549Z,9.2
2017-12-12T11:19:33.298Z,9.22
2017-12-12T11:20:14.311Z,9.3
2017-12-12T11:20:55.510Z,9.4
2017-12-12T11:21:36.349Z,9.3
2017-12-12T11:22:17.064Z,9.32
2017-12-12T11:22:57.645Z,9.26
2017-12-12T11:23:38.046Z,9.24
2017-12-12T11:24:19.120Z,9.27
2017-12-12T11:25:00.289Z,9.32
2017-12-12T11:25:41.376Z,9.3
2017-12-12T11:26:22.318Z,9.27
2017-12-12T11:27:04.899Z,9.26
2017-12-12T11:27:46.488Z,9.3
2017-12-12T11:28:31.821Z,9.34
2017-12-12T11:32:13.695Z,9.04
2017-12-12T11:33:12.991Z,8.89
2017-12-12T11:34:17.991Z,9.04
2017-12-12T11:35:18.799Z,8.89
2017-12-12T11:36:26.422Z,8.83
2017-12-12T11:37:23.887Z,8.76
2017-12-12T11:38:19.747Z,8.73
2017-12-12T11:39:23.909Z,8.76
2017-12-12T11:43:12.561Z,8.76
2017-12-12T11:46:57.578Z,8.86
2017-12-12T11:47:42.842Z,8.83
2017-12-12T11:48:23.047Z,8.93
2017-12-12T11:49:06.361Z,8.79
2017-12-12T11:49:47.622Z,8.78
2017-12-12T11:50:27.614Z,8.73
2017-12-12T11:52:49.644Z,8.85
2017-12-12T11:53:45.111Z,8.68
2017-12-12T11:54:40.360Z,8.71
2017-12-12T11:55:33.232Z,8.65
2017-12-12T11:56:29.908Z,8.68
2017-12-12T11:57:28.684Z,8.57
2017-12-12T11:58:22.900Z,8.7
2017-12-12T11:59:17.108Z,8.63
2017-12-12T12:00:10.596Z,8.47
2017-12-12T12:01:03.531Z,8.47
2017-12-12T12:02:02.251Z,8.49
2017-12-12T12:11:16.964Z,8.65
2017-12-12T12:11:57.173Z,8.7
2017-12-12T12:12:38.020Z,8.5
2017-12-12T12:13:19.861Z,8.52
2017-12-12T12:13:59.610Z,8.61
2017-12-12T12:14:42.654Z,8.58
2017-12-12T12:15:23.793Z,8.52
2017-12-12T12:16:04.601Z,8.46
2017-12-12T12:16:45.247Z,8.46
2017-12-12T12:17:27.048Z,8.43
2017-12-12T12:18:08.540Z,8.47
2017-12-12T12:18:49.455Z,8.34
2017-12-12T12:19:31.710Z,8.32
2017-12-12T12:20:13.653Z,8.32
2017-12-12T12:20:55.779Z,8.17
2017-12-12T12:21:36.424Z,8.31
2017-12-12T12:22:19.146Z,8.36
2017-12-12T12:23:00.074Z,8.39
2017-12-12T12:23:41.399Z,8.46
2017-12-12T12:24:22.560Z,8.45
2017-12-12T12:25:04.635Z,8.55
2017-12-12T12:25:46.842Z,8.47
2017-12-12T12:26:28.681Z,8.39
2017-12-12T12:27:08.937Z,8.37
2017-12-12T12:27:50.948Z,8.27
2017-12-12T12:28:31.780Z,8.14
2017-12-12T12:29:13.222Z,8.25
2017-12-12T12:29:55.394Z,8.29
2017-12-12T12:30:36.813Z,8.04
2017-12-12T12:31:17.827Z,8.12
2017-12-12T12:31:58.684Z,8.13
2017-12-12T12:32:40.203Z,8.13
2017-12-12T12:33:20.888Z,8.02
2017-12-12T12:34:02.514Z,7.95
2017-12-12T12:34:42.184Z,7.92
2017-12-12T12:35:23.278Z,7.91
2017-12-12T12:36:04.819Z,8.02
2017-12-12T12:36:45.498Z,8.03
2017-12-12T12:37:25.904Z,8.04
2017-12-12T12:38:06.523Z,8.02
2017-12-12T12:38:47.395Z,7.94
2017-12-12T12:39:28.125Z,7.91
2017-12-12T12:40:08.648Z,7.96
2017-12-12T12:40:49.208Z,7.91
2017-12-12T12:41:29.638Z,7.92
2017-12-12T12:42:10.236Z,7.84
2017-12-12T12:42:52.121Z,7.85
2017-12-12T12:43:33.432Z,7.91
2017-12-12T12:44:14.335Z,7.84
2017-12-12T12:44:54.919Z,7.81
2017-12-12T12:45:36.783Z,7.81
2017-12-12T12:46:17.461Z,7.79
2017-12-12T12:46:58.635Z,7.82
2017-12-12T12:47:39.870Z,7.92
2017-12-12T12:48:21.143Z,7.94
2017-12-12T12:49:04.204Z,7.85
2017-12-12T12:49:44.843Z,7.95
2017-12-12T12:50:25.348Z,7.85
2017-12-12T12:51:05.692Z,7.85
2017-12-12T12:51:46.498Z,7.74
2017-12-12T12:52:27.247Z,7.73
2017-12-12T12:53:07.743Z,7.66
2017-12-12T12:53:48.325Z,7.66
2017-12-12T12:54:29.199Z,7.77
2017-12-12T12:55:10.404Z,7.86
2017-12-12T12:55:51.145Z,7.92
2017-12-12T12:56:31.811Z,7.84
2017-12-12T12:57:12.430Z,7.99
2017-12-12T12:57:53.033Z,7.84
2017-12-12T12:58:34.531Z,7.81
2017-12-12T12:59:15.481Z,7.82
2017-12-12T12:59:57.396Z,7.81
2017-12-12T13:00:39.106Z,7.79
2017-12-12T13:01:20.960Z,7.89
2017-12-12T13:02:01.518Z,7.92
2017-12-12T13:02:43.712Z,7.82
2017-12-12T13:03:27.604Z,7.81
2017-12-12T13:04:08.184Z,7.73
2017-12-12T13:04:50.979Z,7.85
2017-12-12T13:05:31.738Z,7.94
2017-12-12T13:06:12.298Z,8.03
2017-12-12T13:06:53.005Z,8.03
2017-12-12T13:07:34.156Z,8.07
2017-12-12T13:08:14.687Z,8.18
2017-12-12T13:08:56.470Z,8.22
2017-12-12T13:09:36.970Z,8.22
2017-12-12T13:10:17.666Z,8.27
2017-12-12T13:10:59.139Z,8.21
2017-12-12T13:11:39.121Z,8.27
2017-12-12T13:12:20.725Z,8.36
2017-12-12T13:13:02.635Z,8.34
2017-12-12T13:13:42.686Z,8.36
2017-12-12T13:14:25.386Z,8.36
2017-12-12T13:15:07.195Z,8.5
2017-12-12T13:15:47.651Z,8.4
2017-12-12T13:16:28.923Z,8.34
2017-12-12T13:17:10.381Z,8.32
2017-12-12T13:17:53.436Z,8.34
2017-12-12T13:18:32.718Z,8.13
2017-12-12T13:19:13.244Z,8.03
2017-12-12T13:19:54.012Z,7.91
2017-12-12T13:20:37.356Z,7.99
2017-12-12T13:21:25.503Z,8.04
2017-12-12T13:22:06.029Z,8.04
2017-12-12T13:22:46.644Z,8.13
2017-12-12T13:23:26.994Z,8.09
2017-12-12T13:24:08.277Z,8.14
2017-12-12T13:24:48.842Z,8.2
2017-12-12T13:25:29.941Z,8.24
2017-12-12T13:26:12.192Z,8.14
2017-12-12T13:26:52.961Z,8.14
2017-12-12T13:27:34.166Z,8.06
2017-12-12T13:28:16.112Z,7.99
2017-12-12T13:28:56.531Z,7.95
2017-12-12T13:29:38.371Z,7.86
2017-12-12T13:30:20.733Z,7.95
2017-12-12T13:31:01.113Z,7.94
2017-12-12T13:31:41.705Z,7.94
2017-12-12T13:32:22.671Z,7.91
2017-12-12T13:33:03.089Z,7.99
2017-12-12T13:33:44.400Z,8.04
2017-12-12T13:34:24.821Z,7.92
2017-12-12T13:35:05.433Z,7.99
2017-12-12T13:35:47.069Z,8.07
2017-12-12T13:36:28.145Z,8.17
2017-12-12T13:37:10.019Z,8.17
2017-12-12T13:37:51.642Z,8.24
2017-12-12T13:38:32.258Z,8.07